Time;durP1;ratioP1;P1;durP2;ratioP2;P2;SDS_P1;SDS_P2;PMS_P1;PMS_P2;Temp;Humidity;BMP_temperature;BMP_pressure;BME280_temperature;BME280_humidity;BME280_pressure;Samples;Min_cycle;Max_cycle;Signal;HPM_P1;HPM_P2
2022/05/16 00:01:45;;;;;;;4.30;3.10;;;19.40;79.10;;;;;;5076551;28;20448;-57
2022/05/16 00:04:12;;;;;;;6.30;3.20;;;19.20;80.00;;;;;;5076511;28;20543;-57
2022/05/16 00:06:39;;;;;;;5.30;3.50;;;19.20;80.50;;;;;;5076665;28;20544;-58
2022/05/16 00:09:06;;;;;;;3.37;3.07;;;19.10;79.70;;;;;;5076577;28;20993;-57
2022/05/16 00:11:34;;;;;;;5.00;3.37;;;19.00;79.90;;;;;;5076578;28;20440;-59
2022/05/16 00:14:03;;;;;;;3.13;2.87;;;19.00;80.30;;;;;;5076735;28;20799;-57
2022/05/16 00:16:30;;;;;;;4.20;3.70;;;19.00;80.50;;;;;;5076509;28;20444;-57
2022/05/16 00:18:57;;;;;;;6.23;2.90;;;18.90;80.30;;;;;;5076152;28;20444;-58
2022/05/16 00:21:24;;;;;;;2.87;2.63;;;19.00;81.20;;;;;;5076437;28;20490;-57
2022/05/16 00:23:51;;;;;;;5.13;3.23;;;19.00;80.70;;;;;;5076320;28;20476;-57
2022/05/16 00:26:19;;;;;;;3.03;2.83;;;19.10;81.10;;;;;;5076064;28;20451;-57
2022/05/16 00:28:46;;;;;;;3.30;3.00;;;18.90;81.20;;;;;;5075894;28;20896;-58
2022/05/16 00:31:14;;;;;;;4.57;3.60;;;19.00;82.50;;;;;;5076333;28;20436;-57
2022/05/16 00:33:42;;;;;;;3.60;2.83;;;18.80;81.10;;;;;;5075968;28;20452;-58
2022/05/16 00:36:09;;;;;;;4.47;2.80;;;18.80;81.40;;;;;;5075941;28;20448;-57
2022/05/16 00:38:37;;;;;;;2.97;2.67;;;18.70;82.10;;;;;;5076204;28;20467;-57
2022/05/16 00:41:06;;;;;;;2.90;2.70;;;18.80;82.40;;;;;;5075630;28;20476;-58
2022/05/16 00:43:46;;;;;;;3.27;2.97;;;18.70;81.90;;;;;;5076064;28;20456;-57
2022/05/16 00:46:16;;;;;;;4.37;2.87;;;18.80;83.00;;;;;;5076603;28;20604;-57
2022/05/16 00:48:43;;;;;;;2.93;2.73;;;18.80;83.50;;;;;;5075852;28;20488;-57
2022/05/16 00:51:15;;;;;;;4.27;2.87;;;18.80;83.80;;;;;;5075930;28;20444;-58
2022/05/16 00:53:42;;;;;;;4.33;3.40;;;18.60;83.60;;;;;;5075938;28;20447;-57
2022/05/16 00:56:10;;;;;;;6.70;3.00;;;18.50;84.70;;;;;;5075901;28;20838;-57
2022/05/16 00:58:41;;;;;;;4.17;3.33;;;18.50;85.30;;;;;;5075740;28;20483;-57
2022/05/16 01:04:47;;;;;;;4.13;3.73;;;18.50;85.60;;;;;;5076311;28;20439;-57
2022/05/16 01:06:44;;;;;;;5.53;3.23;;;18.20;85.90;;;;;;5075474;28;20495;-57
2022/05/16 01:09:11;;;;;;;3.53;3.23;;;18.20;86.20;;;;;;5075231;28;20506;-57
2022/05/16 01:11:39;;;;;;;4.90;3.10;;;18.30;86.50;;;;;;5075277;28;20547;-58
2022/05/16 01:14:07;;;;;;;4.53;3.30;;;18.40;87.60;;;;;;5075452;28;20451;-58
2022/05/16 01:16:34;;;;;;;4.90;3.00;;;18.50;87.20;;;;;;5075433;28;20984;-58
2022/05/16 01:19:03;;;;;;;5.27;3.33;;;18.50;88.00;;;;;;5075087;28;20543;-58
2022/05/16 01:21:36;;;;;;;4.43;3.17;;;18.50;88.00;;;;;;5075158;28;20436;-58
2022/05/16 01:24:09;;;;;;;9.40;3.43;;;18.40;86.90;;;;;;5075056;28;20425;-58
2022/05/16 01:26:37;;;;;;;4.03;2.90;;;18.30;88.70;;;;;;5074946;28;20420;-58
2022/05/16 01:29:06;;;;;;;4.47;3.00;;;18.30;89.60;;;;;;5075127;28;20494;-58
2022/05/16 01:31:35;;;;;;;5.30;3.60;;;18.20;89.20;;;;;;5075132;28;20531;-58
2022/05/16 01:34:03;;;;;;;5.40;2.67;;;18.20;90.00;;;;;;5074784;28;20885;-58
2022/05/16 01:36:30;;;;;;;5.20;3.20;;;18.10;89.60;;;;;;5074750;28;20518;-58
2022/05/16 01:38:58;;;;;;;3.53;3.10;;;18.20;90.40;;;;;;5074931;28;20464;-58
2022/05/16 01:41:27;;;;;;;3.50;3.20;;;18.20;90.80;;;;;;5074507;28;20499;-58
2022/05/16 01:43:56;;;;;;;3.73;3.17;;;18.20;90.60;;;;;;5074967;28;20455;-58
2022/05/16 01:46:26;;;;;;;3.30;3.10;;;18.20;90.90;;;;;;5074844;28;20444;-58
2022/05/16 01:48:54;;;;;;;4.63;3.50;;;18.00;91.10;;;;;;5074827;28;20519;-58
2022/05/16 01:51:22;;;;;;;3.47;3.20;;;18.10;91.30;;;;;;5074905;28;20869;-58
2022/05/16 01:53:49;;;;;;;5.80;3.53;;;18.00;91.60;;;;;;5074901;28;20444;-57
2022/05/16 01:56:17;;;;;;;3.93;3.07;;;17.90;99.90;;;;;;5074490;28;21041;-58
2022/05/16 01:58:46;;;;;;;4.53;3.30;;;18.00;92.60;;;;;;5074223;28;20468;-58
2022/05/16 02:01:14;;;;;;;4.93;3.97;;;18.00;92.70;;;;;;5074605;28;20440;-58
2022/05/16 02:03:43;;;;;;;3.47;3.17;;;17.90;93.10;;;;;;5074266;28;20433;-57
2022/05/16 02:06:11;;;;;;;3.67;3.37;;;17.90;93.30;;;;;;5074709;28;20547;-57
2022/05/16 02:08:39;;;;;;;4.70;4.20;;;18.00;93.40;;;;;;5074249;28;20495;-58
2022/05/16 02:11:07;;;;;;;3.30;2.87;;;17.90;93.40;;;;;;5074341;28;20454;-58
2022/05/16 02:13:35;;;;;;;4.40;3.70;;;17.70;93.50;;;;;;5074275;28;20460;-58
2022/05/16 02:16:04;;;;;;;4.20;3.13;;;17.60;93.80;;;;;;5074019;28;20455;-58
2022/05/16 02:18:31;;;;;;;6.97;3.53;;;17.70;94.00;;;;;;5073564;28;20464;-58
2022/05/16 02:26:25;;;;;;;4.83;4.07;;;17.60;94.80;;;;;;5074384;28;20469;-58
2022/05/16 02:28:52;;;;;;;7.70;3.67;;;17.70;94.80;;;;;;5073661;28;20523;-58
2022/05/16 02:31:21;;;;;;;4.13;3.80;;;17.80;94.60;;;;;;5073851;28;20531;-58
2022/05/16 02:33:48;;;;;;;4.90;3.70;;;17.80;94.80;;;;;;5074029;28;20476;-58
2022/05/16 02:36:16;;;;;;;8.03;3.60;;;17.70;94.80;;;;;;5073988;28;20459;-58
2022/05/16 02:38:44;;;;;;;5.10;3.20;;;17.80;94.90;;;;;;5074050;28;20465;-58
2022/05/16 02:41:11;;;;;;;5.83;3.13;;;17.80;95.00;;;;;;5073561;28;20475;-57
2022/05/16 02:43:38;;;;;;;3.40;3.10;;;17.80;94.90;;;;;;5073685;28;20453;-58
2022/05/16 02:46:06;;;;;;;3.93;3.53;;;17.80;94.80;;;;;;5073868;28;20444;-58
2022/05/16 02:48:34;;;;;;;4.80;3.20;;;17.80;95.10;;;;;;5073428;28;20488;-57
2022/05/16 02:51:01;;;;;;;4.40;3.73;;;17.80;94.80;;;;;;5073862;28;20451;-57
2022/05/16 02:53:28;;;;;;;4.60;3.47;;;17.80;94.80;;;;;;5073497;28;20535;-58
2022/05/16 02:55:55;;;;;;;5.90;3.40;;;17.90;94.80;;;;;;5073521;28;20476;-58
2022/05/16 02:58:22;;;;;;;3.33;3.03;;;17.80;94.80;;;;;;5073731;28;20469;-58
2022/05/16 03:00:50;;;;;;;3.53;3.23;;;17.80;95.00;;;;;;5073416;28;20539;-57
2022/05/16 03:03:17;;;;;;;6.40;3.50;;;17.80;94.90;;;;;;5073686;28;20786;-57
2022/05/16 03:05:46;;;;;;;4.93;3.50;;;17.80;94.50;;;;;;5073398;28;20535;-56
2022/05/16 03:08:13;;;;;;;4.10;3.40;;;17.80;94.50;;;;;;5073524;28;20600;-57
2022/05/16 03:10:40;;;;;;;4.23;3.30;;;17.90;94.60;;;;;;5073578;28;20448;-57
2022/05/16 03:13:07;;;;;;;3.50;3.03;;;18.00;94.10;;;;;;5073528;28;20555;-56
2022/05/16 03:15:34;;;;;;;3.57;3.27;;;18.10;94.40;;;;;;5073918;28;20520;-57
2022/05/16 03:18:02;;;;;;;4.83;3.40;;;18.10;94.00;;;;;;5073365;28;20539;-57
2022/05/16 03:20:29;;;;;;;3.10;2.80;;;18.20;93.80;;;;;;5073281;28;20483;-56
2022/05/16 03:22:58;;;;;;;3.97;3.17;;;18.20;93.80;;;;;;5073525;28;20444;-57
2022/05/16 03:25:25;;;;;;;4.67;3.10;;;18.30;93.80;;;;;;5073540;28;20539;-57
2022/05/16 03:27:53;;;;;;;3.33;2.80;;;18.30;93.40;;;;;;5073009;28;21011;-57
2022/05/16 03:30:21;;;;;;;3.87;3.27;;;18.30;92.90;;;;;;5074088;28;20539;-57
2022/05/16 03:32:48;;;;;;;3.60;3.20;;;18.40;93.30;;;;;;5077825;28;20467;-59
2022/05/16 03:35:15;;;;;;;4.07;3.20;;;18.40;93.00;;;;;;5077080;28;20455;-58
2022/05/16 03:37:42;;;;;;;5.13;3.70;;;18.40;93.60;;;;;;5077289;28;20448;-57
2022/05/16 03:42:57;;;;;;;3.87;3.17;;;18.50;93.40;;;;;;5077164;28;20407;-57
2022/05/16 03:45:24;;;;;;;3.37;3.17;;;18.60;92.50;;;;;;5076850;28;20524;-57
2022/05/16 03:47:52;;;;;;;3.47;3.17;;;18.70;92.30;;;;;;5076849;28;20607;-57
2022/05/16 03:50:19;;;;;;;3.20;2.90;;;18.80;92.00;;;;;;5077056;28;20448;-58
2022/05/16 03:52:47;;;;;;;4.70;3.60;;;18.80;92.40;;;;;;5076765;28;20447;-58
2022/05/16 03:55:17;;;;;;;6.70;3.13;;;18.80;92.80;;;;;;5076686;28;20954;-58
2022/05/16 03:57:44;;;;;;;3.17;2.80;;;18.80;92.90;;;;;;5076563;28;20454;-57
2022/05/16 04:00:15;;;;;;;3.83;3.50;;;18.70;93.60;;;;;;5076600;28;20450;-57
2022/05/16 04:02:42;;;;;;;3.57;3.27;;;18.60;94.00;;;;;;5076570;28;20539;-57
2022/05/16 04:05:11;;;;;;;3.30;3.10;;;18.70;93.90;;;;;;5076789;28;20448;-57
2022/05/16 04:07:38;;;;;;;4.17;3.00;;;18.60;94.30;;;;;;5076424;28;20429;-57
2022/05/16 04:10:06;;;;;;;3.70;2.60;;;18.60;94.80;;;;;;5076260;28;20483;-57
2022/05/16 04:12:35;;;;;;;5.17;3.50;;;18.70;94.50;;;;;;5076349;28;20531;-57
2022/05/16 04:15:03;;;;;;;4.90;3.63;;;18.60;94.70;;;;;;5077019;28;20795;-57
2022/05/16 04:17:30;;;;;;;6.73;4.03;;;18.70;94.50;;;;;;5076564;28;20522;-57
2022/05/16 04:19:57;;;;;;;3.83;3.43;;;18.70;94.60;;;;;;5076439;28;20554;-57
2022/05/16 04:22:24;;;;;;;3.97;3.60;;;18.70;94.70;;;;;;5076467;28;20813;-57
2022/05/16 04:24:52;;;;;;;9.33;3.20;;;18.70;96.30;;;;;;5076447;28;20476;-57
2022/05/16 04:27:19;;;;;;;3.63;3.33;;;18.70;97.00;;;;;;5076260;28;20966;-57
2022/05/16 04:29:48;;;;;;;5.40;3.00;;;18.70;99.20;;;;;;5075878;28;20982;-57
2022/05/16 04:32:15;;;;;;;4.00;3.70;;;18.70;99.70;;;;;;5076306;28;20510;-58
2022/05/16 04:34:42;;;;;;;3.90;3.50;;;18.70;99.60;;;;;;5076241;28;20452;-58
2022/05/16 04:37:09;;;;;;;5.70;3.43;;;18.60;99.90;;;;;;5076775;28;20482;-59
2022/05/16 04:39:36;;;;;;;4.17;3.53;;;18.60;99.90;;;;;;5075968;28;20555;-57
2022/05/16 04:44:50;;;;;;;5.40;4.00;;;18.60;99.90;;;;;;5076296;28;20505;-57
2022/05/16 04:47:17;;;;;;;3.80;3.50;;;18.50;99.90;;;;;;5075689;28;20535;-57
2022/05/16 04:49:45;;;;;;;4.07;3.77;;;18.50;99.90;;;;;;5075824;28;20520;-57
2022/05/16 04:52:12;;;;;;;3.93;3.47;;;18.50;99.90;;;;;;5075960;28;20448;-57
2022/05/16 04:54:40;;;;;;;4.97;3.90;;;18.50;99.90;;;;;;5075631;28;20452;-57
2022/05/16 04:57:08;;;;;;;4.17;3.77;;;18.40;99.90;;;;;;5075866;28;20479;-58
2022/05/16 04:59:35;;;;;;;9.23;3.80;;;18.40;99.90;;;;;;5075500;28;20464;-58
2022/05/16 05:02:04;;;;;;;5.10;4.57;;;18.40;99.90;;;;;;5075702;28;20976;-57
2022/05/16 05:04:31;;;;;;;3.83;3.53;;;18.30;99.90;;;;;;5075290;28;20459;-58
2022/05/16 05:06:59;;;;;;;4.63;3.67;;;18.50;99.90;;;;;;5075377;28;20943;-58
2022/05/16 05:09:26;;;;;;;7.47;3.70;;;18.60;99.90;;;;;;5075102;28;20494;-58
2022/05/16 05:14:41;;;;;;;5.03;4.43;;;18.70;99.90;;;;;;5075674;28;20585;-58
2022/05/16 05:17:12;;;;;;;4.43;4.13;;;18.80;99.90;;;;;;5075192;28;20429;-58
2022/05/16 05:19:40;;;;;;;4.40;4.03;;;18.80;99.90;;;;;;5074942;28;20465;-58
2022/05/16 05:22:08;;;;;;;3.40;3.10;;;18.90;99.90;;;;;;5075253;28;20449;-58
2022/05/16 05:24:36;;;;;;;4.23;3.83;;;18.90;99.90;;;;;;5075362;28;20444;-58
2022/05/16 05:27:04;;;;;;;6.33;3.97;;;19.00;99.90;;;;;;5075246;28;20444;-58
2022/05/16 05:29:31;;;;;;;3.50;3.20;;;19.00;99.90;;;;;;5074923;28;20520;-58
2022/05/16 05:31:59;;;;;;;6.60;3.53;;;19.10;99.90;;;;;;5075111;28;20596;-58
2022/05/16 05:34:28;;;;;;;4.13;3.50;;;19.10;99.90;;;;;;5074575;28;20480;-57
2022/05/16 05:36:56;;;;;;;9.50;4.47;;;19.10;99.90;;;;;;5075392;28;20506;-57
2022/05/16 05:39:23;;;;;;;5.00;4.50;;;19.20;99.90;;;;;;5074688;28;20468;-57
2022/05/16 05:41:50;;;;;;;6.87;3.80;;;19.30;99.90;;;;;;5074371;28;20963;-57
2022/05/16 05:44:18;;;;;;;6.60;4.50;;;19.20;99.90;;;;;;5074841;28;20916;-57
2022/05/16 05:46:46;;;;;;;6.97;4.40;;;19.20;99.90;;;;;;5074712;28;20808;-57
2022/05/16 05:49:13;;;;;;;6.23;4.47;;;19.30;99.90;;;;;;5074269;28;20971;-57
2022/05/16 05:51:43;;;;;;;7.50;4.87;;;19.30;99.90;;;;;;5074558;28;20868;-57
2022/05/16 05:54:10;;;;;;;6.93;4.67;;;19.30;99.90;;;;;;5074354;28;20822;-57
2022/05/16 05:56:37;;;;;;;8.00;4.40;;;19.30;99.90;;;;;;5074620;28;20531;-57
2022/05/16 05:59:05;;;;;;;7.10;4.50;;;19.40;99.90;;;;;;5074487;28;20464;-57
2022/05/16 06:01:32;;;;;;;7.77;4.90;;;19.40;99.90;;;;;;5074521;28;20870;-57
2022/05/16 06:04:00;;;;;;;11.87;5.27;;;19.40;99.90;;;;;;5074453;28;20444;-57
2022/05/16 06:06:27;;;;;;;10.70;5.10;;;19.40;99.90;;;;;;5074653;28;20437;-57
2022/05/16 06:08:55;;;;;;;9.50;5.07;;;19.50;99.90;;;;;;5073943;28;20987;-56
2022/05/16 06:11:27;;;;;;;7.57;4.60;;;19.50;99.90;;;;;;5073996;28;20448;-58
2022/05/16 06:13:55;;;;;;;6.30;4.83;;;19.60;99.90;;;;;;5074077;28;20452;-57
2022/05/16 06:16:22;;;;;;;6.67;4.10;;;19.70;99.90;;;;;;5074193;28;20455;-57
2022/05/16 06:18:49;;;;;;;6.93;4.70;;;19.90;99.90;;;;;;5073640;28;20823;-57
2022/05/16 06:21:16;;;;;;;6.07;4.07;;;20.00;99.90;;;;;;5073994;28;20448;-57
2022/05/16 06:23:43;;;;;;;4.57;4.10;;;20.00;99.90;;;;;;5073695;28;20444;-57
2022/05/16 06:26:12;;;;;;;4.37;4.00;;;20.10;99.90;;;;;;5073625;28;20448;-57
2022/05/16 06:28:39;;;;;;;5.67;4.03;;;20.10;99.90;;;;;;5073809;28;20470;-56
2022/05/16 06:31:07;;;;;;;6.17;4.03;;;20.10;99.90;;;;;;5074504;28;20491;-56
2022/05/16 06:33:35;;;;;;;8.63;4.23;;;20.20;99.90;;;;;;5074410;28;20488;-57
2022/05/16 06:36:05;;;;;;;4.20;3.80;;;20.20;99.90;;;;;;5073571;28;20459;-58
2022/05/16 06:38:35;;;;;;;9.50;4.17;;;20.20;99.90;;;;;;5073988;28;20487;-57
2022/05/16 06:41:02;;;;;;;4.60;4.20;;;20.30;99.90;;;;;;5053073;28;20911;-58
2022/05/16 06:43:31;;;;;;;4.67;4.27;;;20.40;99.90;;;;;;5069766;28;20468;-57
2022/05/16 06:45:59;;;;;;;5.60;3.60;;;20.60;99.90;;;;;;5073330;28;20998;-57
2022/05/16 06:48:26;;;;;;;8.83;4.20;;;20.60;99.90;;;;;;5072285;28;21041;-57
2022/05/16 06:50:54;;;;;;;4.57;4.17;;;20.80;99.90;;;;;;5071966;28;20476;-57
2022/05/16 06:53:23;;;;;;;8.60;4.47;;;20.90;99.90;;;;;;5073448;28;20449;-57
2022/05/16 06:55:50;;;;;;;6.00;4.27;;;21.10;99.90;;;;;;5053303;28;20473;-58
2022/05/16 06:58:18;;;;;;;4.07;3.77;;;21.30;99.90;;;;;;5067990;28;20482;-58
2022/05/16 07:00:47;;;;;;;5.10;4.60;;;21.30;99.90;;;;;;5072488;28;20471;-57
2022/05/16 07:03:15;;;;;;;4.90;3.83;;;21.30;99.90;;;;;;5072454;28;20460;-57
2022/05/16 07:05:42;;;;;;;4.50;3.70;;;21.50;99.90;;;;;;5070840;28;20543;-58
2022/05/16 07:08:09;;;;;;;4.57;3.67;;;21.70;99.90;;;;;;5071630;28;20486;-58
2022/05/16 07:10:37;;;;;;;6.50;4.63;;;21.80;99.90;;;;;;5066551;28;20563;-58
2022/05/16 07:13:04;;;;;;;8.23;4.50;;;21.90;99.90;;;;;;5069537;28;20469;-58
2022/05/16 07:15:31;;;;;;;5.47;3.90;;;22.10;99.90;;;;;;5071357;28;20484;-58
2022/05/16 07:18:00;;;;;;;5.93;3.73;;;22.30;99.90;;;;;;5066651;28;20464;-57
2022/05/16 07:20:27;;;;;;;4.17;3.77;;;22.40;99.90;;;;;;5069767;28;20465;-58
2022/05/16 07:22:58;;;;;;;6.97;3.80;;;22.60;99.90;;;;;;5071503;28;20444;-58
2022/05/16 07:25:26;;;;;;;4.80;4.40;;;23.00;99.90;;;;;;5072677;28;20866;-57
2022/05/16 07:27:59;;;;;;;5.10;3.97;;;23.00;99.90;;;;;;5064943;28;20506;-58
2022/05/16 07:30:30;;;;;;;4.23;3.67;;;23.20;99.90;;;;;;5071011;28;20472;-58
2022/05/16 07:33:00;;;;;;;4.93;4.07;;;23.40;99.60;;;;;;5072299;28;20437;-58
2022/05/16 07:35:30;;;;;;;7.47;5.00;;;23.60;99.00;;;;;;5067186;28;20574;-58
2022/05/16 07:37:58;;;;;;;4.20;3.27;;;23.80;99.70;;;;;;5060877;28;20462;-58
2022/05/16 07:40:27;;;;;;;5.60;4.03;;;23.80;99.50;;;;;;5071204;28;20994;-57
2022/05/16 07:42:54;;;;;;;12.33;4.63;;;23.70;99.90;;;;;;5071436;28;20947;-58
2022/05/16 07:45:22;;;;;;;5.60;4.40;;;23.80;99.50;;;;;;5072183;28;20467;-58
2022/05/16 07:47:50;;;;;;;7.83;4.20;;;23.70;99.40;;;;;;5069976;28;20542;-58
2022/05/16 07:50:19;;;;;;;5.70;3.97;;;23.50;99.60;;;;;;5070383;28;20494;-59
2022/05/16 07:52:47;;;;;;;6.73;4.27;;;23.40;99.80;;;;;;5069451;28;20518;-58
2022/05/16 07:55:17;;;;;;;5.20;4.73;;;23.30;99.90;;;;;;5069583;28;20464;-56
2022/05/16 07:57:44;;;;;;;5.10;4.60;;;23.20;99.90;;;;;;5070608;28;20461;-55
2022/05/16 08:00:13;;;;;;;6.80;5.30;;;23.10;99.90;;;;;;5069322;28;20807;-58
2022/05/16 08:02:40;;;;;;;5.40;4.90;;;23.00;99.90;;;;;;5070512;28;20452;-58
2022/05/16 08:05:08;;;;;;;7.20;5.47;;;22.80;99.90;;;;;;5066125;28;20468;-57
2022/05/16 08:10:29;;;;;;;5.93;4.80;;;22.70;99.90;;;;;;5072247;28;20432;-60
2022/05/16 08:10:29;;;;;;;6.03;5.53;;;22.60;99.90;;;;;;5062468;28;20873;-60
2022/05/16 08:12:57;;;;;;;7.17;5.80;;;22.60;99.90;;;;;;5066567;28;20445;-60
2022/05/16 08:15:25;;;;;;;7.90;5.40;;;22.50;99.90;;;;;;5053498;28;20429;-60
2022/05/16 08:17:52;;;;;;;5.87;5.00;;;22.40;99.90;;;;;;5069958;28;20456;-60
2022/05/16 08:20:20;;;;;;;7.87;5.67;;;22.40;99.90;;;;;;5071001;28;20452;-60
2022/05/16 08:22:49;;;;;;;5.20;4.70;;;22.40;99.90;;;;;;5075362;28;20476;-60
2022/05/16 08:25:16;;;;;;;5.53;4.93;;;22.40;99.90;;;;;;5075257;28;20479;-60
2022/05/16 08:27:44;;;;;;;7.63;5.20;;;22.40;99.90;;;;;;5060678;28;20449;-60
2022/05/16 08:30:13;;;;;;;6.03;5.53;;;22.50;99.90;;;;;;5075650;28;20484;-60
2022/05/16 08:32:40;;;;;;;5.27;4.77;;;22.60;99.90;;;;;;5075437;28;20460;-60
2022/05/16 08:35:10;;;;;;;5.70;4.93;;;22.80;99.90;;;;;;5076220;28;20456;-60
2022/05/16 08:40:25;;;;;;;6.50;5.50;;;23.20;99.90;;;;;;5073201;28;20547;-61
2022/05/16 08:42:55;;;;;;;7.73;6.07;;;23.10;99.90;;;;;;5073853;28;20819;-60
2022/05/16 08:45:31;;;;;;;8.13;5.60;;;23.20;99.90;;;;;;5073216;28;20460;-60
2022/05/16 08:48:08;;;;;;;6.70;4.90;;;23.40;99.90;;;;;;5074042;28;20424;-59
2022/05/16 08:50:41;;;;;;;5.60;5.10;;;23.90;99.90;;;;;;5074465;28;20867;-60
2022/05/16 08:53:13;;;;;;;8.57;5.17;;;24.50;99.90;;;;;;5074214;28;20827;-60
2022/05/16 08:55:49;;;;;;;6.30;5.70;;;25.60;99.90;;;;;;5074255;28;20435;-60
2022/05/16 08:58:23;;;;;;;6.73;5.30;;;26.60;99.90;;;;;;5075425;28;20824;-60
2022/05/16 09:00:53;;;;;;;12.13;5.77;;;27.60;99.20;;;;;;5075831;28;20432;-60
2022/05/16 09:03:43;;;;;;;7.40;4.90;;;27.80;96.80;;;;;;5075467;28;20523;-60
2022/05/16 09:06:16;;;;;;;7.30;5.00;;;27.40;98.00;;;;;;5075313;28;20433;-60
2022/05/16 09:08:50;;;;;;;7.60;6.00;;;26.90;97.10;;;;;;5075400;28;20551;-56
2022/05/16 09:11:40;;;;;;;6.10;4.50;;;26.70;98.00;;;;;;5075632;28;20472;-58
2022/05/16 09:14:11;;;;;;;9.20;4.00;;;26.60;95.50;;;;;;5074954;28;20514;-59
2022/05/16 09:16:47;;;;;;;6.30;4.23;;;26.30;96.40;;;;;;5074966;28;20772;-58
2022/05/16 09:19:48;;;;;;;7.83;4.67;;;27.60;95.20;;;;;;5074961;28;20472;-58
2022/05/16 09:22:22;;;;;;;5.50;5.10;;;28.20;93.60;;;;;;5063940;28;20495;-58
2022/05/16 09:24:52;;;;;;;6.43;4.50;;;28.70;92.40;;;;;;5075617;28;20511;-59
2022/05/16 09:30:16;;;;;;;6.40;5.80;;;28.20;91.50;;;;;;5075003;28;20467;-61
2022/05/16 09:32:48;;;;;;;5.90;4.70;;;28.00;91.80;;;;;;5075061;28;20456;-59
2022/05/16 09:35:28;;;;;;;4.97;4.57;;;27.50;91.60;;;;;;5074817;28;20494;-58
2022/05/16 09:37:58;;;;;;;12.90;4.90;;;27.10;91.80;;;;;;5074895;28;20429;-59
2022/05/16 09:40:27;;;;;;;7.27;4.47;;;27.00;91.90;;;;;;5074415;28;20479;-59
2022/05/16 09:42:56;;;;;;;6.63;5.13;;;27.40;91.30;;;;;;5074556;28;20448;-59
2022/05/16 09:45:28;;;;;;;5.47;4.70;;;27.30;90.90;;;;;;5074406;28;20516;-58
2022/05/16 09:47:55;;;;;;;7.80;5.03;;;27.00;91.30;;;;;;5074277;28;20425;-58
2022/05/16 09:50:24;;;;;;;6.03;4.57;;;26.60;91.10;;;;;;5074161;28;20480;-60
2022/05/16 09:53:09;;;;;;;7.53;5.40;;;26.10;91.70;;;;;;5074341;28;20488;-58
2022/05/16 09:55:46;;;;;;;5.80;5.30;;;25.90;91.70;;;;;;5074173;28;20437;-57
2022/05/16 09:58:19;;;;;;;7.00;4.90;;;25.90;91.60;;;;;;5074488;28;20486;-59
2022/05/16 10:00:54;;;;;;;6.77;4.70;;;25.90;91.70;;;;;;5074084;28;20918;-61
2022/05/16 10:03:25;;;;;;;6.20;4.23;;;26.00;91.70;;;;;;5074396;28;20432;-59
2022/05/16 10:05:53;;;;;;;5.37;4.67;;;26.20;92.20;;;;;;5074404;28;20433;-60
2022/05/16 10:08:33;;;;;;;7.43;4.90;;;26.60;91.70;;;;;;5074305;28;20550;-64
2022/05/16 10:11:03;;;;;;;6.00;4.90;;;26.90;90.60;;;;;;5074223;28;20467;-63
2022/05/16 10:13:33;;;;;;;9.50;4.77;;;26.60;91.10;;;;;;5073850;28;20488;-59
2022/05/16 10:16:02;;;;;;;5.40;4.90;;;26.50;91.40;;;;;;5073984;28;20455;-60
2022/05/16 10:18:32;;;;;;;6.87;4.90;;;26.50;91.20;;;;;;5074020;28;20468;-58
2022/05/16 10:21:03;;;;;;;8.33;5.77;;;26.50;91.60;;;;;;5073955;28;20440;-58
2022/05/16 10:23:35;;;;;;;8.90;5.70;;;26.50;90.90;;;;;;5073694;28;20439;-58
2022/05/16 10:26:06;;;;;;;8.53;5.00;;;26.80;91.90;;;;;;5073850;28;20514;-58
2022/05/16 10:28:39;;;;;;;6.30;5.23;;;27.20;91.80;;;;;;5074093;28;20468;-58
2022/05/16 10:34:07;;;;;;;12.40;5.63;;;27.20;90.40;;;;;;5073610;28;20925;-59
2022/05/16 10:36:36;;;;;;;5.60;5.03;;;26.50;90.40;;;;;;5073888;28;20456;-57
2022/05/16 10:39:06;;;;;;;8.10;5.33;;;26.20;91.10;;;;;;5073414;28;20528;-57
2022/05/16 10:41:37;;;;;;;5.23;4.60;;;25.70;92.00;;;;;;5071626;28;20538;-59
2022/05/16 10:44:19;;;;;;;5.97;4.90;;;25.50;92.10;;;;;;5073565;28;20470;-63
2022/05/16 10:46:54;;;;;;;9.67;4.47;;;25.50;92.30;;;;;;5073648;28;20443;-68
2022/05/16 10:49:22;;;;;;;8.40;4.97;;;25.30;93.70;;;;;;5073641;28;20474;-60
2022/05/16 10:51:58;;;;;;;7.17;4.70;;;25.20;93.00;;;;;;5073198;28;20978;-61
2022/05/16 10:54:28;;;;;;;10.93;5.43;;;25.00;92.70;;;;;;5073501;28;20437;-63
2022/05/16 10:57:15;;;;;;;6.23;4.80;;;25.00;93.20;;;;;;5073516;28;20444;-63
2022/05/16 11:00:07;;;;;;;4.20;3.80;;;25.20;93.10;;;;;;5073538;28;20504;-57
2022/05/16 11:03:08;;;;;;;10.10;4.60;;;25.20;93.30;;;;;;5073442;28;20440;-61
2022/05/16 11:05:42;;;;;;;5.73;3.87;;;25.20;92.80;;;;;;5072951;28;20590;-57
2022/05/16 11:08:19;;;;;;;4.30;3.90;;;25.10;93.20;;;;;;5073201;28;20548;-59
2022/05/16 11:10:54;;;;;;;8.47;4.00;;;25.10;93.00;;;;;;5073707;28;20457;-58
2022/05/16 11:13:32;;;;;;;6.20;4.30;;;25.00;93.50;;;;;;5073056;28;20539;-56
2022/05/16 11:16:10;;;;;;;11.20;4.90;;;24.90;93.30;;;;;;5072835;28;20456;-57
2022/05/16 11:18:45;;;;;;;6.83;4.53;;;24.70;93.90;;;;;;5073019;28;20555;-57
2022/05/16 11:21:25;;;;;;;8.80;4.40;;;24.50;94.40;;;;;;5072234;28;20451;-56
2022/05/16 11:24:04;;;;;;;4.97;3.60;;;24.20;95.10;;;;;;5073428;28;20415;-56
2022/05/16 11:26:41;;;;;;;7.20;3.70;;;23.90;95.30;;;;;;5073205;28;20455;-55
2022/05/16 11:29:19;;;;;;;4.27;3.67;;;23.80;95.50;;;;;;5073242;28;20472;-56
2022/05/16 11:32:08;;;;;;;5.67;4.10;;;23.80;95.70;;;;;;5073241;28;20468;-56
2022/05/16 11:34:53;;;;;;;6.00;3.53;;;23.80;95.80;;;;;;5073187;28;20474;-57
2022/05/16 11:37:31;;;;;;;4.30;3.43;;;23.50;95.40;;;;;;5072573;28;20491;-56
2022/05/16 11:40:06;;;;;;;4.90;2.83;;;23.50;95.60;;;;;;5072618;28;20480;-56
2022/05/16 11:42:41;;;;;;;3.57;2.97;;;23.30;95.20;;;;;;5073042;28;20798;-56
2022/05/16 11:45:24;;;;;;;4.07;3.13;;;23.30;95.00;;;;;;5073272;28;20521;-56
2022/05/16 11:48:01;;;;;;;4.43;2.90;;;23.10;95.20;;;;;;5072902;28;20474;-56
2022/05/16 11:50:34;;;;;;;5.17;2.90;;;23.10;95.50;;;;;;5073127;28;20499;-57
2022/05/16 11:53:15;;;;;;;3.07;2.20;;;23.00;95.80;;;;;;5076721;28;20500;-56
2022/05/16 12:01:34;;;;;;;5.17;2.57;;;22.80;94.30;;;;;;5076971;28;20412;-57
2022/05/16 12:04:12;;;;;;;4.10;2.20;;;22.70;94.00;;;;;;5076707;28;20531;-55
2022/05/16 12:06:41;;;;;;;4.00;2.63;;;22.60;93.60;;;;;;5077246;28;20425;-56
2022/05/16 12:09:26;;;;;;;2.90;2.27;;;22.60;93.30;;;;;;5077256;28;20467;-56
2022/05/16 12:11:57;;;;;;;4.50;2.50;;;22.50;93.60;;;;;;5076193;28;20522;-56
2022/05/16 12:14:32;;;;;;;5.20;2.47;;;22.20;96.60;;;;;;5076773;28;20542;-56
2022/05/16 12:17:18;;;;;;;3.10;2.83;;;21.00;99.90;;;;;;5075977;28;20475;-56
2022/05/16 12:19:48;;;;;;;5.07;2.80;;;20.80;99.90;;;;;;5076641;28;20480;-57
2022/05/16 12:22:22;;;;;;;5.33;3.37;;;20.60;99.90;;;;;;5076552;28;20440;-55
2022/05/16 12:25:08;;;;;;;4.17;2.93;;;20.20;99.90;;;;;;5076065;28;20428;-56
2022/05/16 12:27:38;;;;;;;7.33;2.77;;;19.90;99.90;;;;;;5076363;28;20515;-57
2022/05/16 12:30:08;;;;;;;4.50;2.40;;;19.80;99.90;;;;;;5076101;28;20517;-56
2022/05/16 12:32:57;;;;;;;3.20;2.70;;;19.80;99.90;;;;;;5076040;28;20465;-55
2022/05/16 12:35:47;;;;;;;7.03;2.73;;;19.70;99.90;;;;;;5075777;28;20517;-56
2022/05/16 12:38:18;;;;;;;4.83;2.40;;;19.70;99.90;;;;;;5075724;28;21024;-55
2022/05/16 12:41:38;;;;;;;3.50;2.40;;;19.40;99.90;;;;;;5075713;28;20475;-56
2022/05/16 12:44:16;;;;;;;6.43;3.07;;;19.30;99.90;;;;;;5076008;28;20452;-56
2022/05/16 12:47:05;;;;;;;9.53;3.00;;;19.30;99.90;;;;;;5075783;28;20911;-56
2022/05/16 12:50:16;;;;;;;5.30;2.80;;;19.30;99.90;;;;;;5075577;28;20475;-56
2022/05/16 12:53:17;;;;;;;3.27;2.67;;;19.30;99.90;;;;;;5046729;28;20575;-55
2022/05/16 12:56:07;;;;;;;8.90;3.60;;;19.10;99.90;;;;;;5073666;28;20814;-56
2022/05/16 12:58:45;;;;;;;7.00;3.00;;;19.00;99.90;;;;;;5073748;28;20480;-55
2022/05/16 13:01:25;;;;;;;3.20;2.90;;;19.10;99.90;;;;;;5075084;28;20460;-57
2022/05/16 13:04:01;;;;;;;3.63;3.13;;;19.30;99.90;;;;;;5074215;28;20437;-57
2022/05/16 13:06:44;;;;;;;7.90;3.27;;;19.40;99.90;;;;;;5075193;28;20429;-56
2022/05/16 13:09:34;;;;;;;3.40;2.50;;;19.40;99.90;;;;;;5075050;28;20464;-57
2022/05/16 13:12:12;;;;;;;4.27;2.53;;;19.60;99.90;;;;;;5075331;28;20468;-57
2022/05/16 13:14:46;;;;;;;7.40;3.70;;;20.10;99.90;;;;;;5075595;28;20479;-59
2022/05/16 13:17:29;;;;;;;4.50;3.13;;;20.30;99.90;;;;;;5074773;28;20903;-58
2022/05/16 13:19:56;;;;;;;3.50;2.80;;;20.50;99.90;;;;;;5075025;28;20448;-57
2022/05/16 13:22:24;;;;;;;3.40;2.80;;;21.30;99.90;;;;;;5075225;28;20451;-54
2022/05/16 13:24:55;;;;;;;5.13;3.10;;;21.40;99.90;;;;;;5074878;28;20809;-50
2022/05/16 13:30:12;;;;;;;5.03;2.50;;;21.00;99.90;;;;;;5074764;28;20446;-56
2022/05/16 13:32:40;;;;;;;3.93;2.50;;;20.90;99.90;;;;;;5074754;28;20475;-55
2022/05/16 13:35:11;;;;;;;4.07;2.90;;;21.10;99.90;;;;;;5074618;28;20531;-55
2022/05/16 13:37:45;;;;;;;2.83;2.63;;;21.30;99.90;;;;;;5075031;28;20451;-57
2022/05/16 13:40:23;;;;;;;6.57;3.70;;;21.50;99.90;;;;;;5074316;28;20563;-55